Time;durP1;ratioP1;P1;durP2;ratioP2;P2;SDS_P1;SDS_P2;PMS_P1;PMS_P2;Temp;Humidity;BMP_temperature;BMP_pressure;BME280_temperature;BME280_humidity;BME280_pressure;Samples;Min_cycle;Max_cycle;Signal;HPM_P1;HPM_P2
2024/02/11 00:00:27;;;;;;;3.40;2.67;;;;;16.30;97560.00;;;;2076681;28;20229;-58
2024/02/11 00:01:28;;;;;;;4.13;2.70;;;;;16.20;97561.00;;;;2077615;28;20218;-58
2024/02/11 00:02:28;;;;;;;6.30;2.53;;;;;16.30;97556.00;;;;2078555;28;20682;-58
2024/02/11 00:03:29;;;;;;;2.70;2.00;;;;;16.30;97556.00;;;;2078300;28;20218;-59
2024/02/11 00:04:30;;;;;;;4.03;2.70;;;;;16.30;97557.00;;;;2068239;28;20218;-58
2024/02/11 00:05:31;;;;;;;3.45;2.05;;;;;16.30;97555.00;;;;2077901;28;20214;-58
2024/02/11 00:06:31;;;;;;;3.40;2.30;;;;;16.30;97552.00;;;;2076880;28;20210;-60
2024/02/11 00:07:32;;;;;;;2.87;2.30;;;;;16.30;97548.00;;;;2070184;28;20682;-59
2024/02/11 00:08:33;;;;;;;4.30;2.80;;;;;16.30;97548.00;;;;2076792;28;20248;-58
2024/02/11 00:09:33;;;;;;;3.20;2.43;;;;;16.20;97550.00;;;;2067717;28;20226;-59
2024/02/11 00:10:33;;;;;;;3.00;2.10;;;;;16.30;97551.00;;;;2075036;28;20483;-59
2024/02/11 00:11:34;;;;;;;3.43;2.13;;;;;16.30;97548.00;;;;2077324;28;20225;-58
2024/02/11 00:12:35;;;;;;;3.73;2.50;;;;;16.30;97549.00;;;;2078461;28;20256;-59
2024/02/11 00:13:36;;;;;;;3.65;2.42;;;;;16.30;97533.00;;;;2071483;28;20218;-60
2024/02/11 00:14:36;;;;;;;3.60;2.57;;;;;16.20;97543.00;;;;2067112;28;20905;-59
2024/02/11 00:15:38;;;;;;;3.30;2.20;;;;;16.20;97535.00;;;;2078253;28;20213;-59
2024/02/11 00:16:39;;;;;;;3.65;2.28;;;;;16.20;97534.00;;;;2076277;28;20628;-58
2024/02/11 00:17:39;;;;;;;3.03;2.13;;;;;16.30;97540.00;;;;2078243;28;20249;-58
2024/02/11 00:18:41;;;;;;;3.67;2.57;;;;;16.20;97534.00;;;;2077158;28;20229;-59
2024/02/11 00:19:42;;;;;;;4.82;2.65;;;;;16.20;97525.00;;;;2068156;28;20436;-59
2024/02/11 00:20:43;;;;;;;3.50;2.80;;;;;16.30;97529.00;;;;2076129;28;20240;-59
2024/02/11 00:21:43;;;;;;;4.77;2.53;;;;;16.30;97541.00;;;;2076821;28;20460;-59
2024/02/11 00:22:44;;;;;;;3.20;2.40;;;;;16.30;97530.00;;;;2076801;28;20269;-59
2024/02/11 00:23:44;;;;;;;4.07;2.63;;;;;16.30;97536.00;;;;2076986;28;20205;-59
2024/02/11 00:24:45;;;;;;;4.27;2.60;;;;;16.30;97535.00;;;;2068295;28;20480;-60
2024/02/11 00:25:45;;;;;;;4.10;2.63;;;;;16.20;97535.00;;;;2077402;28;20218;-58
2024/02/11 00:26:45;;;;;;;3.73;2.57;;;;;15.70;97534.00;;;;2076884;28;20325;-59
2024/02/11 00:27:50;;;;;;;3.83;2.70;;;;;16.20;97533.00;;;;2077724;28;20578;-59
2024/02/11 00:28:50;;;;;;;3.90;2.67;;;;;16.20;97532.00;;;;2078196;28;20214;-59
2024/02/11 00:29:51;;;;;;;3.53;2.43;;;;;16.20;97536.00;;;;2068501;28;20236;-59
2024/02/11 00:30:53;;;;;;;4.00;2.90;;;;;16.20;97535.00;;;;2081687;28;20252;-58
2024/02/11 00:31:56;;;;;;;3.65;2.40;;;;;16.20;97536.00;;;;2077294;28;20216;-58
2024/02/11 00:32:56;;;;;;;3.58;2.80;;;;;16.20;97544.00;;;;2073660;28;20217;-59
2024/02/11 00:33:57;;;;;;;3.50;3.00;;;;;16.20;97541.00;;;;2074068;28;20213;-58
2024/02/11 00:34:58;;;;;;;3.50;2.20;;;;;16.20;97533.00;;;;2061554;28;20687;-58
2024/02/11 00:35:59;;;;;;;3.75;2.70;;;;;16.20;97543.00;;;;2076030;28;20205;-58
2024/02/11 00:37:00;;;;;;;3.70;2.55;;;;;16.20;97538.00;;;;2075777;28;20233;-60
2024/02/11 00:38:00;;;;;;;3.53;2.90;;;;;16.20;97562.00;;;;2077732;28;20216;-60
2024/02/11 00:39:00;;;;;;;4.50;2.67;;;;;16.20;97542.00;;;;2075062;28;20647;-60
2024/02/11 00:40:08;;;;;;;3.80;2.77;;;;;16.20;97544.00;;;;2062143;28;21241;-59
2024/02/11 00:41:08;;;;;;;3.35;2.30;;;;;16.20;97554.00;;;;2074722;28;20691;-59
2024/02/11 00:42:09;;;;;;;3.07;2.57;;;;;16.20;97554.00;;;;2072445;28;20221;-59
2024/02/11 00:43:09;;;;;;;3.00;2.20;;;;;16.20;97548.00;;;;2082174;28;21006;-59
2024/02/11 00:44:10;;;;;;;3.73;2.60;;;;;16.20;97550.00;;;;2074729;28;20830;-58
2024/02/11 00:45:12;;;;;;;4.23;2.70;;;;;16.20;97555.00;;;;2065716;28;20209;-58
2024/02/11 00:46:15;;;;;;;3.35;2.40;;;;;16.20;97553.00;;;;2074749;28;20543;-58
2024/02/11 00:47:15;;;;;;;5.20;2.95;;;;;16.20;97546.00;;;;2077091;28;20205;-59
2024/02/11 00:48:15;;;;;;;3.37;2.50;;;;;16.20;97548.00;;;;2077869;28;20256;-60
2024/02/11 00:49:16;;;;;;;4.33;3.10;;;;;16.20;97537.00;;;;2077666;28;20200;-59
2024/02/11 00:50:17;;;;;;;3.38;2.38;;;;;15.80;97553.00;;;;2068098;28;20234;-59
2024/02/11 00:51:19;;;;;;;3.50;2.50;;;;;16.20;97552.00;;;;2078120;28;20252;-58
2024/02/11 00:52:19;;;;;;;3.97;2.83;;;;;16.20;97546.00;;;;2074734;28;20996;-59
2024/02/11 00:53:20;;;;;;;4.60;3.20;;;;;16.20;97549.00;;;;2073641;28;20206;-58
2024/02/11 00:54:20;;;;;;;3.93;2.43;;;;;16.20;97547.00;;;;2072589;28;20221;-60
2024/02/11 00:55:21;;;;;;;4.60;3.03;;;;;16.20;97560.00;;;;2067436;28;20342;-59
2024/02/11 00:56:22;;;;;;;4.13;3.05;;;;;16.20;97550.00;;;;2075504;28;20229;-58
2024/02/11 00:57:22;;;;;;;3.60;2.50;;;;;16.20;97544.00;;;;2076999;28;20245;-59
2024/02/11 00:58:23;;;;;;;3.10;2.30;;;;;16.20;97553.00;;;;2077918;28;20221;-58
2024/02/11 00:59:23;;;;;;;3.70;2.80;;;;;16.20;97569.00;;;;2070495;28;20236;-58
2024/02/11 01:00:23;;;;;;;3.20;2.77;;;;;16.20;97546.00;;;;2076778;28;20221;-60
2024/02/11 01:01:24;;;;;;;4.30;2.70;;;;;16.20;97552.00;;;;2073399;28;20211;-59
2024/02/11 01:02:24;;;;;;;3.77;2.80;;;;;16.20;97542.00;;;;2074441;28;20252;-58
2024/02/11 01:03:25;;;;;;;3.20;2.20;;;;;16.20;97550.00;;;;2077232;28;20218;-59
2024/02/11 01:04:25;;;;;;;4.47;2.97;;;;;16.20;97546.00;;;;2065366;28;20229;-58
2024/02/11 01:05:26;;;;;;;3.73;2.77;;;;;16.20;97556.00;;;;2085509;28;20307;-59
2024/02/11 01:06:26;;;;;;;3.50;2.60;;;;;16.20;97547.00;;;;2081218;28;20220;-60
2024/02/11 01:07:26;;;;;;;3.80;2.73;;;;;16.20;97544.00;;;;2072663;28;20250;-60
2024/02/11 01:08:27;;;;;;;3.40;2.50;;;;;16.20;97541.00;;;;2073910;28;20583;-58
2024/02/11 01:09:27;;;;;;;3.50;2.67;;;;;16.20;97552.00;;;;2068298;28;20648;-59
2024/02/11 01:10:31;;;;;;;4.13;2.57;;;;;16.20;97546.00;;;;2084496;28;21047;-58
2024/02/11 01:11:31;;;;;;;3.35;2.58;;;;;16.20;97550.00;;;;2084490;28;20657;-59
2024/02/11 01:12:31;;;;;;;4.63;3.27;;;;;16.20;97541.00;;;;2078045;28;20225;-59
2024/02/11 01:13:32;;;;;;;3.60;2.80;;;;;16.20;97541.00;;;;2075688;28;20225;-58
2024/02/11 01:14:32;;;;;;;3.90;2.73;;;;;15.80;97546.00;;;;2067150;28;20226;-58
2024/02/11 01:15:33;;;;;;;3.97;2.87;;;;;16.20;97539.00;;;;2076392;28;21699;-60
2024/02/11 01:16:35;;;;;;;3.77;3.07;;;;;16.20;97543.00;;;;2076145;28;20221;-59
2024/02/11 01:17:35;;;;;;;4.07;3.35;;;;;16.20;97549.00;;;;2075984;28;20309;-59
2024/02/11 01:18:35;;;;;;;3.97;2.70;;;;;16.20;97548.00;;;;2077292;28;20217;-59
2024/02/11 01:19:36;;;;;;;4.60;2.70;;;;;16.20;97541.00;;;;2067651;28;20237;-59
2024/02/11 01:20:36;;;;;;;4.53;2.67;;;;;16.20;97545.00;;;;2076915;28;20210;-58
2024/02/11 01:21:36;;;;;;;4.00;3.10;;;;;16.20;97551.00;;;;2077409;28;20221;-58
2024/02/11 01:22:39;;;;;;;4.40;3.13;;;;;15.80;97536.00;;;;2076427;28;20252;-58
2024/02/11 01:23:40;;;;;;;4.00;3.10;;;;;16.20;97543.00;;;;2070015;28;20229;-58
2024/02/11 01:24:40;;;;;;;3.30;2.70;;;;;16.20;97545.00;;;;2061023;28;20214;-58
2024/02/11 01:25:40;;;;;;;5.13;3.37;;;;;16.20;97546.00;;;;2077106;28;20279;-58
2024/02/11 01:26:41;;;;;;;4.07;2.80;;;;;15.80;97542.00;;;;2075088;28;20225;-58
2024/02/11 01:27:41;;;;;;;4.50;3.30;;;;;15.30;97547.00;;;;2076883;28;20252;-59
2024/02/11 01:28:42;;;;;;;4.20;2.80;;;;;16.20;97539.00;;;;2077824;28;20213;-60
2024/02/11 01:29:42;;;;;;;4.27;3.23;;;;;16.20;97542.00;;;;2067203;28;20236;-58
2024/02/11 01:30:45;;;;;;;4.17;3.40;;;;;16.20;97554.00;;;;2077368;28;20210;-58
2024/02/11 01:31:46;;;;;;;4.43;3.60;;;;;16.20;97549.00;;;;2077423;28;20244;-60
2024/02/11 01:32:47;;;;;;;3.78;2.90;;;;;16.20;97551.00;;;;2074694;28;20691;-59
2024/02/11 01:33:49;;;;;;;4.90;3.23;;;;;16.20;97548.00;;;;2067899;28;20266;-60
2024/02/11 01:34:50;;;;;;;3.30;2.78;;;;;16.20;97548.00;;;;2066330;28;20475;-60
2024/02/11 01:35:50;;;;;;;4.03;3.00;;;;;16.20;97545.00;;;;2077116;28;20761;-58
2024/02/11 01:36:51;;;;;;;3.50;2.90;;;;;16.20;97554.00;;;;2074980;28;20238;-58
2024/02/11 01:37:51;;;;;;;4.80;3.23;;;;;16.20;97549.00;;;;2077308;28;20218;-58
2024/02/11 01:38:53;;;;;;;4.87;3.20;;;;;16.20;97546.00;;;;2076459;28;20210;-58
2024/02/11 01:39:53;;;;;;;5.03;3.42;;;;;16.20;97542.00;;;;2072207;28;20750;-59
2024/02/11 01:40:54;;;;;;;4.30;3.30;;;;;16.30;97543.00;;;;2077568;28;20217;-58
2024/02/11 01:41:54;;;;;;;3.80;3.17;;;;;16.20;97547.00;;;;2072363;28;20365;-59
2024/02/11 01:43:00;;;;;;;4.00;2.77;;;;;16.20;97547.00;;;;2077754;28;20217;-60
2024/02/11 01:44:00;;;;;;;3.35;2.72;;;;;16.20;97550.00;;;;2074697;28;20221;-60
2024/02/11 01:45:00;;;;;;;3.93;2.97;;;;;16.20;97533.00;;;;2066254;28;20216;-59
2024/02/11 01:46:01;;;;;;;4.13;3.00;;;;;16.30;97537.00;;;;2077221;28;20217;-59
2024/02/11 01:47:02;;;;;;;4.20;3.30;;;;;16.30;97540.00;;;;2073834;28;20216;-59
2024/02/11 01:48:06;;;;;;;4.10;3.40;;;;;16.20;97565.00;;;;2073544;28;20210;-58
2024/02/11 01:49:06;;;;;;;4.30;3.03;;;;;16.20;97547.00;;;;2074523;28;20215;-59
2024/02/11 01:50:08;;;;;;;4.23;3.07;;;;;16.20;97547.00;;;;2067818;28;20678;-60
2024/02/11 01:51:10;;;;;;;4.68;3.00;;;;;16.20;97541.00;;;;2074213;28;20206;-59
2024/02/11 01:52:11;;;;;;;5.22;3.30;;;;;16.20;97519.00;;;;2075157;28;20210;-59
2024/02/11 01:53:12;;;;;;;3.42;2.90;;;;;16.20;97534.00;;;;2076168;28;20650;-58
2024/02/11 01:54:15;;;;;;;4.47;3.20;;;;;16.20;97537.00;;;;2068295;28;20238;-60
2024/02/11 01:55:18;;;;;;;4.43;2.83;;;;;15.80;97543.00;;;;2061672;28;20253;-59
2024/02/11 01:56:20;;;;;;;3.97;2.50;;;;;16.20;97551.00;;;;2074645;28;20263;-59
2024/02/11 01:57:21;;;;;;;4.28;2.60;;;;;16.20;97547.00;;;;2073084;28;20217;-60
2024/02/11 01:58:21;;;;;;;4.37;3.07;;;;;16.20;97542.00;;;;2071005;28;20210;-60
2024/02/11 01:59:21;;;;;;;4.80;3.33;;;;;16.20;97551.00;;;;2076622;28;20217;-58
2024/02/11 02:00:22;;;;;;;4.33;3.30;;;;;16.20;97556.00;;;;2066032;28;20369;-58
2024/02/11 02:01:25;;;;;;;4.87;3.17;;;;;16.20;97549.00;;;;2079522;28;20240;-58
2024/02/11 02:02:25;;;;;;;3.35;2.80;;;;;16.20;97547.00;;;;2068339;28;20218;-59
2024/02/11 02:03:25;;;;;;;4.33;3.07;;;;;16.20;97553.00;;;;2060154;28;20250;-59
2024/02/11 02:04:25;;;;;;;5.13;3.40;;;;;16.20;97552.00;;;;2065921;28;20245;-59
2024/02/11 02:05:26;;;;;;;3.50;2.73;;;;;16.20;97556.00;;;;2076955;28;20222;-57
2024/02/11 02:06:26;;;;;;;4.47;3.50;;;;;16.20;97540.00;;;;2073472;28;20253;-59
2024/02/11 02:07:26;;;;;;;4.17;3.37;;;;;16.20;97557.00;;;;2076478;28;20470;-59
2024/02/11 02:08:27;;;;;;;6.20;3.30;;;;;16.20;97554.00;;;;2072255;28;20210;-58
2024/02/11 02:09:27;;;;;;;4.47;3.07;;;;;16.20;97550.00;;;;2065960;28;20201;-59
2024/02/11 02:10:27;;;;;;;3.60;2.80;;;;;16.20;97554.00;;;;2077208;28;20237;-59
2024/02/11 02:11:28;;;;;;;4.10;2.90;;;;;16.20;97546.00;;;;2074918;28;20220;-58
2024/02/11 02:12:28;;;;;;;5.33;3.77;;;;;16.20;97559.00;;;;2060248;28;20223;-58
2024/02/11 02:13:28;;;;;;;4.27;3.07;;;;;16.20;97552.00;;;;2063501;28;20230;-58
2024/02/11 02:14:29;;;;;;;4.00;3.37;;;;;16.20;97557.00;;;;2066617;28;20298;-58
2024/02/11 02:15:30;;;;;;;3.57;2.70;;;;;16.20;97548.00;;;;2071984;28;20721;-58
2024/02/11 02:16:30;;;;;;;3.73;3.07;;;;;16.20;97556.00;;;;2073557;28;20901;-58
2024/02/11 02:17:30;;;;;;;4.33;3.13;;;;;16.20;97543.00;;;;2077274;28;20865;-58
2024/02/11 02:18:34;;;;;;;4.17;3.20;;;;;16.20;97540.00;;;;2076529;28;20563;-58
2024/02/11 02:19:34;;;;;;;4.00;3.15;;;;;16.20;97547.00;;;;2068822;28;20249;-59
2024/02/11 02:20:35;;;;;;;5.27;3.07;;;;;16.20;97547.00;;;;2084074;28;20224;-59
2024/02/11 02:21:44;;;;;;;3.90;3.27;;;;;16.20;97550.00;;;;2081663;28;20220;-59
2024/02/11 02:22:44;;;;;;;3.70;3.10;;;;;16.20;97538.00;;;;2074902;28;20645;-59
2024/02/11 02:23:45;;;;;;;4.90;3.20;;;;;16.20;97542.00;;;;2075986;28;20217;-59
2024/02/11 02:24:45;;;;;;;4.60;3.73;;;;;16.20;97537.00;;;;2067205;28;20252;-59
2024/02/11 02:25:46;;;;;;;4.50;3.13;;;;;16.20;97541.00;;;;2076676;28;20416;-57
2024/02/11 02:26:46;;;;;;;4.80;3.77;;;;;16.10;97534.00;;;;2075903;28;20232;-59
2024/02/11 02:27:47;;;;;;;3.80;2.83;;;;;16.20;97540.00;;;;2070509;28;20225;-59
2024/02/11 02:28:47;;;;;;;3.87;3.33;;;;;16.20;97539.00;;;;2077283;28;20244;-58
2024/02/11 02:29:47;;;;;;;4.37;3.20;;;;;16.20;97545.00;;;;2067378;28;21044;-59
2024/02/11 02:30:48;;;;;;;3.50;2.67;;;;;16.20;97544.00;;;;2076339;28;20240;-58
2024/02/11 02:31:48;;;;;;;4.87;3.53;;;;;16.20;97550.00;;;;2068011;28;20221;-58
2024/02/11 02:32:48;;;;;;;3.60;2.83;;;;;16.20;97535.00;;;;2074919;28;20260;-60
2024/02/11 02:33:50;;;;;;;4.97;3.47;;;;;16.20;97535.00;;;;2074537;28;20251;-59
2024/02/11 02:34:50;;;;;;;4.40;3.00;;;;;16.20;97595.00;;;;2067185;28;20229;-60
2024/02/11 02:35:51;;;;;;;3.40;2.50;;;;;16.20;97541.00;;;;2076052;28;20731;-59
2024/02/11 02:36:52;;;;;;;3.65;3.03;;;;;16.20;97534.00;;;;2075770;28;20237;-58
2024/02/11 02:37:53;;;;;;;4.03;3.23;;;;;16.20;97532.00;;;;2076118;28;20736;-57
2024/02/11 02:38:53;;;;;;;4.40;3.47;;;;;16.20;97529.00;;;;2077484;28;20201;-57
2024/02/11 02:39:54;;;;;;;5.23;3.03;;;;;16.20;97529.00;;;;2066190;28;20954;-58
2024/02/11 02:40:55;;;;;;;3.95;2.90;;;;;16.20;97529.00;;;;2077772;28;20217;-59
2024/02/11 02:41:55;;;;;;;4.13;3.07;;;;;16.20;97529.00;;;;2076650;28;20210;-58
2024/02/11 02:42:58;;;;;;;3.73;3.03;;;;;16.20;97534.00;;;;2076075;28;20205;-58
2024/02/11 02:43:58;;;;;;;3.55;2.75;;;;;16.20;97532.00;;;;2076412;28;20297;-57
2024/02/11 02:44:59;;;;;;;4.87;3.20;;;;;16.20;97531.00;;;;2066644;28;20222;-58
2024/02/11 02:46:00;;;;;;;3.60;2.88;;;;;16.20;97533.00;;;;2068686;28;20233;-57
2024/02/11 02:47:00;;;;;;;7.80;3.57;;;;;16.20;97531.00;;;;2075207;28;20237;-56
2024/02/11 02:48:01;;;;;;;3.67;2.83;;;;;16.20;97525.00;;;;2074826;28;22401;-57
2024/02/11 02:49:03;;;;;;;3.57;2.97;;;;;16.20;97518.00;;;;2077080;28;20268;-57
2024/02/11 02:50:03;;;;;;;4.30;3.10;;;;;16.20;97521.00;;;;2072611;28;20212;-57
2024/02/11 02:51:03;;;;;;;3.67;3.10;;;;;16.20;97523.00;;;;2077171;28;20214;-57
2024/02/11 02:52:06;;;;;;;5.27;2.60;;;;;16.20;97520.00;;;;2076397;28;20213;-58
2024/02/11 02:53:09;;;;;;;4.15;3.20;;;;;16.20;97526.00;;;;2076726;28;20287;-58
2024/02/11 02:54:12;;;;;;;4.72;3.30;;;;;16.20;97534.00;;;;2076236;28;20257;-58
2024/02/11 02:55:12;;;;;;;4.95;3.60;;;;;16.20;97522.00;;;;2066497;28;20202;-58
2024/02/11 02:56:15;;;;;;;4.27;2.93;;;;;16.20;97520.00;;;;2074926;28;20739;-57
2024/02/11 02:57:16;;;;;;;4.60;3.30;;;;;16.20;97528.00;;;;2077156;28;20209;-58
2024/02/11 02:58:16;;;;;;;3.70;3.20;;;;;16.20;97520.00;;;;2077065;28;20292;-57
2024/02/11 02:59:16;;;;;;;3.90;3.07;;;;;16.30;97525.00;;;;2076350;28;20226;-58
2024/02/11 03:00:18;;;;;;;3.60;3.00;;;;;16.20;97523.00;;;;2065270;28;20209;-58
2024/02/11 03:01:20;;;;;;;4.10;3.22;;;;;16.20;97513.00;;;;2071719;28;21065;-57
2024/02/11 03:02:20;;;;;;;4.00;2.85;;;;;16.20;97519.00;;;;2077314;28;20297;-57
2024/02/11 03:03:20;;;;;;;3.87;3.03;;;;;16.20;97572.00;;;;2077666;28;20705;-57
2024/02/11 03:04:21;;;;;;;3.43;3.00;;;;;16.20;97531.00;;;;2078345;28;20737;-57
2024/02/11 03:05:22;;;;;;;4.57;3.27;;;;;16.30;97533.00;;;;2065959;28;20691;-58
2024/02/11 03:06:22;;;;;;;4.20;3.20;;;;;15.80;97522.00;;;;2075157;28;20737;-57
2024/02/11 03:07:22;;;;;;;4.30;3.27;;;;;16.20;97511.00;;;;2075849;28;20210;-57
2024/02/11 03:08:23;;;;;;;4.20;3.20;;;;;16.30;97538.00;;;;2074580;28;21161;-58
2024/02/11 03:09:24;;;;;;;3.63;2.97;;;;;16.20;97532.00;;;;2073093;28;20710;-58
2024/02/11 03:10:25;;;;;;;4.78;3.20;;;;;16.20;97534.00;;;;2073183;28;20201;-58
2024/02/11 03:11:25;;;;;;;4.57;3.33;;;;;16.20;97534.00;;;;2078787;28;20207;-58
2024/02/11 03:12:26;;;;;;;3.97;2.93;;;;;16.20;97533.00;;;;2074715;28;20215;-57
2024/02/11 03:13:26;;;;;;;3.80;2.73;;;;;16.30;97530.00;;;;2075701;28;20234;-57
2024/02/11 03:14:27;;;;;;;3.37;2.80;;;;;16.20;97528.00;;;;2068733;28;20260;-58
2024/02/11 03:15:28;;;;;;;4.75;2.90;;;;;16.20;97530.00;;;;2077893;28;20215;-59
2024/02/11 03:16:28;;;;;;;4.10;3.17;;;;;16.20;97533.00;;;;2076823;28;20238;-57
2024/02/11 03:17:28;;;;;;;3.90;3.10;;;;;15.80;97535.00;;;;2078131;28;20225;-57
2024/02/11 03:18:29;;;;;;;3.37;3.00;;;;;16.20;97525.00;;;;2078541;28;20248;-58
2024/02/11 03:19:30;;;;;;;3.97;3.00;;;;;16.20;97529.00;;;;2068915;28;20214;-59
2024/02/11 03:20:30;;;;;;;4.10;3.17;;;;;16.20;97535.00;;;;2077671;28;20464;-57
2024/02/11 03:21:30;;;;;;;3.30;2.70;;;;;16.20;97531.00;;;;2078844;28;20868;-58
2024/02/11 03:22:31;;;;;;;4.80;3.30;;;;;16.20;97534.00;;;;2079668;28;20700;-58
2024/02/11 03:23:31;;;;;;;4.00;3.20;;;;;16.20;97533.00;;;;2078837;28;20723;-57
2024/02/11 03:24:31;;;;;;;4.27;3.10;;;;;16.20;97523.00;;;;2060821;28;21247;-57
2024/02/11 03:25:32;;;;;;;4.00;3.23;;;;;16.20;97530.00;;;;2078449;28;20732;-57
2024/02/11 03:26:32;;;;;;;4.20;3.00;;;;;16.20;97524.00;;;;2076981;28;20695;-57
2024/02/11 03:27:34;;;;;;;4.80;3.57;;;;;16.20;97525.00;;;;2077942;28;20328;-58
2024/02/11 03:28:34;;;;;;;4.65;3.20;;;;;16.20;97527.00;;;;2074092;28;20211;-58
2024/02/11 03:29:34;;;;;;;4.40;3.40;;;;;16.20;97525.00;;;;2064085;28;20217;-58
2024/02/11 03:30:35;;;;;;;4.13;2.73;;;;;16.20;97530.00;;;;2078445;28;20221;-57
2024/02/11 03:31:36;;;;;;;4.83;3.43;;;;;16.20;97521.00;;;;2077936;28;20265;-57
2024/02/11 03:32:36;;;;;;;3.93;2.90;;;;;16.20;97531.00;;;;2078330;28;20244;-57
2024/02/11 03:33:36;;;;;;;5.43;3.43;;;;;16.20;97533.00;;;;2073900;28;20253;-57
2024/02/11 03:34:37;;;;;;;3.63;2.90;;;;;16.20;97527.00;;;;2065818;28;20216;-58
2024/02/11 03:35:37;;;;;;;3.97;3.30;;;;;16.20;97518.00;;;;2078225;28;20308;-58
2024/02/11 03:36:38;;;;;;;4.00;3.30;;;;;16.20;97533.00;;;;2076314;28;20224;-58
2024/02/11 03:37:39;;;;;;;5.00;3.42;;;;;16.20;97531.00;;;;2078326;28;20241;-58
2024/02/11 03:38:39;;;;;;;5.00;3.13;;;;;16.20;97531.00;;;;2077525;28;20323;-58
2024/02/11 03:39:40;;;;;;;4.83;3.10;;;;;16.20;97534.00;;;;2068375;28;20232;-58
2024/02/11 03:40:41;;;;;;;4.17;3.13;;;;;16.20;97528.00;;;;2078202;28;20217;-57
2024/02/11 03:41:41;;;;;;;4.50;3.30;;;;;16.20;97521.00;;;;2077739;28;20225;-57
2024/02/11 03:42:41;;;;;;;3.87;3.47;;;;;16.20;97531.00;;;;2078385;28;20269;-58
2024/02/11 03:43:42;;;;;;;4.53;3.10;;;;;16.20;97538.00;;;;2077527;28;20235;-58
2024/02/11 03:44:42;;;;;;;5.50;3.20;;;;;16.20;97532.00;;;;2068403;28;20236;-57
2024/02/11 03:45:42;;;;;;;4.63;3.17;;;;;16.20;97538.00;;;;2077719;28;20221;-57
2024/02/11 03:46:43;;;;;;;3.97;3.10;;;;;16.20;97532.00;;;;2076669;28;20202;-62
2024/02/11 03:47:43;;;;;;;4.50;3.20;;;;;16.20;97544.00;;;;2078097;28;20209;-57
2024/02/11 03:48:43;;;;;;;4.00;3.03;;;;;16.20;97531.00;;;;2077750;28;20730;-59
2024/02/11 03:49:44;;;;;;;4.40;3.17;;;;;16.20;97537.00;;;;2068605;28;20228;-59
2024/02/11 03:50:45;;;;;;;6.73;3.30;;;;;16.20;97540.00;;;;2077599;28;20202;-59
2024/02/11 03:51:46;;;;;;;4.22;3.20;;;;;16.20;97536.00;;;;2078273;28;20695;-58
2024/02/11 03:52:46;;;;;;;4.40;3.57;;;;;16.20;97542.00;;;;2073983;28;20234;-58
2024/02/11 03:53:47;;;;;;;5.10;3.40;;;;;16.20;97551.00;;;;2078164;28;21003;-57
2024/02/11 03:54:47;;;;;;;3.80;3.20;;;;;16.20;97535.00;;;;2068349;28;20238;-56
2024/02/11 03:55:47;;;;;;;4.43;3.40;;;;;16.20;97547.00;;;;2077634;28;20233;-57
2024/02/11 03:56:47;;;;;;;4.10;3.17;;;;;16.20;97553.00;;;;2077031;28;20248;-58
2024/02/11 03:57:48;;;;;;;4.07;3.43;;;;;16.20;97548.00;;;;2077608;28;20283;-57
2024/02/11 03:58:49;;;;;;;3.73;2.90;;;;;16.20;97544.00;;;;2078237;28;21046;-59
2024/02/11 03:59:50;;;;;;;4.25;3.03;;;;;16.20;97539.00;;;;2067632;28;20328;-57
2024/02/11 04:00:50;;;;;;;3.90;2.83;;;;;16.20;97549.00;;;;2072398;28;20322;-58
2024/02/11 04:01:50;;;;;;;4.53;2.97;;;;;16.20;97547.00;;;;2067165;28;20222;-57
2024/02/11 04:02:54;;;;;;;3.73;2.70;;;;;16.20;97546.00;;;;2068348;28;20203;-57
2024/02/11 04:03:54;;;;;;;4.53;3.13;;;;;16.20;97555.00;;;;2077913;28;20214;-58
2024/02/11 04:04:55;;;;;;;3.73;2.97;;;;;16.20;97543.00;;;;2067597;28;20226;-57
2024/02/11 04:05:55;;;;;;;3.80;3.07;;;;;16.20;97548.00;;;;2078127;28;20220;-58
2024/02/11 04:06:55;;;;;;;3.77;3.00;;;;;16.20;97553.00;;;;2076306;28;20210;-57
2024/02/11 04:07:56;;;;;;;4.10;3.33;;;;;16.20;97552.00;;;;2078268;28;20213;-57
2024/02/11 04:08:57;;;;;;;3.87;2.90;;;;;16.20;97552.00;;;;2078225;28;20241;-58
2024/02/11 04:10:09;;;;;;;4.10;3.30;;;;;16.20;97563.00;;;;2073791;28;20225;-58
2024/02/11 04:11:12;;;;;;;3.75;3.05;;;;;16.20;97550.00;;;;2078267;28;20217;-57
2024/02/11 04:12:13;;;;;;;3.90;2.90;;;;;16.20;97549.00;;;;2077472;28;20276;-61
2024/02/11 04:13:13;;;;;;;4.30;2.80;;;;;16.20;97549.00;;;;2077943;28;20267;-61
2024/02/11 04:14:15;;;;;;;4.07;2.93;;;;;16.20;97550.00;;;;2076186;28;20210;-59
2024/02/11 04:15:15;;;;;;;3.90;2.75;;;;;16.20;97552.00;;;;2068249;28;20214;-58
2024/02/11 04:16:16;;;;;;;3.97;2.77;;;;;16.20;97564.00;;;;2076409;28;20209;-59
2024/02/11 04:17:16;;;;;;;3.83;2.90;;;;;16.20;97559.00;;;;2078232;28;20206;-57
2024/02/11 04:18:21;;;;;;;3.47;3.00;;;;;16.20;97552.00;;;;2077915;28;20288;-57
2024/02/11 04:19:21;;;;;;;4.45;2.90;;;;;16.20;97566.00;;;;2077493;28;20732;-57
2024/02/11 04:20:26;;;;;;;3.80;3.10;;;;;16.20;97567.00;;;;2068372;28;20216;-57
2024/02/11 04:21:32;;;;;;;4.22;3.20;;;;;16.20;97556.00;;;;2077601;28;20799;-57
2024/02/11 04:22:36;;;;;;;4.10;3.03;;;;;16.20;97568.00;;;;2074340;28;20218;-58
2024/02/11 04:23:38;;;;;;;3.22;2.60;;;;;16.20;97575.00;;;;2073105;28;20234;-57
2024/02/11 04:24:40;;;;;;;4.32;2.78;;;;;16.20;97567.00;;;;2066789;28;20214;-58
2024/02/11 04:25:45;;;;;;;3.70;3.10;;;;;16.20;97556.00;;;;2077248;28;20225;-57
2024/02/11 04:26:45;;;;;;;3.88;3.00;;;;;16.20;97573.00;;;;2077794;28;20275;-57
2024/02/11 04:27:46;;;;;;;4.20;3.03;;;;;16.20;97563.00;;;;2073051;28;20338;-57
2024/02/11 04:28:47;;;;;;;3.70;3.20;;;;;16.20;97558.00;;;;2074886;28;20238;-58
2024/02/11 04:29:47;;;;;;;4.30;3.17;;;;;16.20;97566.00;;;;2068263;28;21088;-57
2024/02/11 04:30:47;;;;;;;3.80;3.10;;;;;16.20;97557.00;;;;2077131;28;20218;-57
2024/02/11 04:31:48;;;;;;;4.30;3.23;;;;;16.20;97564.00;;;;2077861;28;20217;-57
2024/02/11 04:32:48;;;;;;;3.37;2.87;;;;;16.20;97567.00;;;;2077620;28;20218;-59
2024/02/11 04:33:51;;;;;;;3.77;3.07;;;;;16.20;97572.00;;;;2083175;28;20719;-58
2024/02/11 04:34:53;;;;;;;3.92;3.10;;;;;16.20;97570.00;;;;2075256;28;20657;-57
2024/02/11 04:35:53;;;;;;;4.20;2.70;;;;;16.20;97557.00;;;;2076930;28;20222;-57
2024/02/11 04:36:55;;;;;;;4.10;3.00;;;;;16.20;97565.00;;;;2076772;28;20942;-57
2024/02/11 04:37:55;;;;;;;3.55;2.83;;;;;16.20;97570.00;;;;2077240;28;20209;-56
2024/02/11 04:38:57;;;;;;;3.50;2.77;;;;;16.20;97560.00;;;;2071859;28;20301;-57
2024/02/11 04:39:58;;;;;;;3.65;2.80;;;;;16.20;97560.00;;;;2066159;28;20356;-58
2024/02/11 04:41:00;;;;;;;3.20;2.60;;;;;16.20;97564.00;;;;2076900;28;20213;-58
2024/02/11 04:42:01;;;;;;;4.93;3.47;;;;;16.20;97573.00;;;;2077828;28;20543;-58
2024/02/11 04:43:02;;;;;;;4.00;3.03;;;;;16.20;97567.00;;;;2077148;28;20312;-57
2024/02/11 04:44:05;;;;;;;5.05;3.15;;;;;16.20;97563.00;;;;2077423;28;20660;-59
2024/02/11 04:45:07;;;;;;;3.22;2.60;;;;;16.20;97560.00;;;;2067350;28;20221;-58
2024/02/11 04:46:09;;;;;;;5.00;3.25;;;;;16.20;97574.00;;;;2077826;28;20214;-58
2024/02/11 04:47:09;;;;;;;3.60;2.70;;;;;16.20;97611.00;;;;2075856;28;20214;-57
2024/02/11 04:48:11;;;;;;;4.53;3.40;;;;;16.20;97563.00;;;;2075304;28;20702;-57
2024/02/11 04:49:12;;;;;;;3.85;3.15;;;;;16.20;97569.00;;;;2069657;28;20979;-56
2024/02/11 04:50:15;;;;;;;3.77;2.83;;;;;16.20;97564.00;;;;2067305;28;20244;-58
2024/02/11 04:51:16;;;;;;;4.18;2.83;;;;;16.20;97580.00;;;;2077582;28;20807;-57
2024/02/11 04:52:18;;;;;;;4.27;2.80;;;;;16.20;97574.00;;;;2075477;28;20259;-57
2024/02/11 04:53:18;;;;;;;4.00;2.95;;;;;16.20;97572.00;;;;2077692;28;20609;-57
2024/02/11 04:54:18;;;;;;;5.27;3.00;;;;;16.20;97576.00;;;;2075670;28;20205;-58
2024/02/11 04:55:19;;;;;;;4.43;3.30;;;;;16.20;97565.00;;;;2061032;28;20218;-57
2024/02/11 04:56:19;;;;;;;3.87;2.93;;;;;16.20;97577.00;;;;2075892;28;20202;-58
2024/02/11 04:57:21;;;;;;;4.17;3.00;;;;;16.20;97614.00;;;;2076301;28;20205;-57
2024/02/11 04:58:26;;;;;;;4.47;3.10;;;;;16.20;97558.00;;;;2076782;28;20237;-58
2024/02/11 04:59:26;;;;;;;3.30;2.90;;;;;16.20;97562.00;;;;2064788;28;20304;-57
2024/02/11 05:00:30;;;;;;;4.13;2.87;;;;;16.20;97575.00;;;;2071691;28;20202;-59
2024/02/11 05:01:31;;;;;;;3.83;2.72;;;;;16.20;97591.00;;;;2076931;28;20213;-57
2024/02/11 05:02:31;;;;;;;3.63;2.58;;;;;16.20;97577.00;;;;2070102;28;20264;-57
2024/02/11 05:03:32;;;;;;;3.67;2.90;;;;;16.20;97568.00;;;;2076870;28;20308;-58
2024/02/11 05:04:32;;;;;;;4.40;2.80;;;;;16.20;97575.00;;;;2067939;28;20267;-58
2024/02/11 05:05:34;;;;;;;3.53;2.93;;;;;16.20;97566.00;;;;2077684;28;20224;-57